RYR84YM EDDR-LEAL
Flight info
| Callsign | RYR84YM |
|---|---|
| Flight time | N/A |
| Altitude | 37000 |
| Route | GTQ2L GTQ A242 POGOL DCT MOROK DCT GILIR DCT GEVEA DCT INCUS DCT BALSI DCT RETNO DCT TUPOX DCT MTG DCT DIVKO DCT VATIR DCT PIVUS DCT SULID DCT SISMO DCT AKAMU DCT ADX DCT OKITI DCT IBEBA DCT BAVER M603 GERVU |
| Aircraft | B738/M-SDE2E3FGHIRWXY/LB1 |
Departure
| Time | 2026-04-15 09:47 |
|---|---|
| Airport | Saarbrücken Airport (EDDR) |
Arrival
| Time | N/A |
|---|---|
| Airport | Alicante-Elche Miguel Hernández Airport (LEAL) |
| Time | Latitude | Longitude | Altitude | Speed | Heading |
|---|---|---|---|---|---|
| 2026-04-15 09:10 | 49.21853 | 7.11349 | 1066 ft | 0 kts | 346° |
| 2026-04-15 09:39 | 49.21843 | 7.11354 | 1067 ft | 2 kts | 332° |
| 2026-04-15 09:39 | 49.21829 | 7.11368 | 1069 ft | 2 kts | 314° |
| 2026-04-15 09:39 | 49.21819 | 7.11388 | 1067 ft | 2 kts | 291° |
| 2026-04-15 09:39 | 49.21815 | 7.11413 | 1068 ft | 2 kts | 275° |
| 2026-04-15 09:40 | 49.21815 | 7.11438 | 1069 ft | 2 kts | 264° |
| 2026-04-15 09:40 | 49.21817 | 7.11462 | 1067 ft | 2 kts | 257° |
| 2026-04-15 09:40 | 49.21819 | 7.11470 | 1068 ft | 0 kts | 256° |
| 2026-04-15 09:42 | 49.21812 | 7.11427 | 1069 ft | 8 kts | 256° |
| 2026-04-15 09:43 | 49.21795 | 7.11324 | 1066 ft | 12 kts | 256° |
| 2026-04-15 09:43 | 49.21769 | 7.11194 | 1068 ft | 13 kts | 234° |
| 2026-04-15 09:43 | 49.21689 | 7.11136 | 1067 ft | 13 kts | 198° |
| 2026-04-15 09:43 | 49.21616 | 7.11076 | 1066 ft | 12 kts | 239° |
| 2026-04-15 09:44 | 49.21606 | 7.10943 | 1065 ft | 14 kts | 269° |
| 2026-04-15 09:44 | 49.21602 | 7.10771 | 1063 ft | 18 kts | 268° |
| 2026-04-15 09:44 | 49.21595 | 7.10572 | 1058 ft | 19 kts | 266° |
| 2026-04-15 09:44 | 49.21589 | 7.10374 | 1053 ft | 19 kts | 267° |
| 2026-04-15 09:45 | 49.21583 | 7.10170 | 1045 ft | 16 kts | 267° |
| 2026-04-15 09:45 | 49.21560 | 7.09997 | 1032 ft | 15 kts | 249° |
| 2026-04-15 09:45 | 49.21517 | 7.09858 | 1020 ft | 17 kts | 244° |
| 2026-04-15 09:45 | 49.21458 | 7.09767 | 1011 ft | 12 kts | 186° |
| 2026-04-15 09:46 | 49.21421 | 7.09800 | 1010 ft | 3 kts | 99° |
| 2026-04-15 09:46 | 49.21423 | 7.09878 | 1014 ft | 26 kts | 87° |
| 2026-04-15 09:46 | 49.21444 | 7.10559 | 1045 ft | 100 kts | 87° |
| 2026-04-15 09:46 | 49.21486 | 7.11960 | 1106 ft | 159 kts | 87° |
| 2026-04-15 09:47 | 49.21540 | 7.13696 | 1900 ft | 167 kts | 87° |
| 2026-04-15 09:47 | 49.21575 | 7.15459 | 2961 ft | 162 kts | 90° |
| 2026-04-15 09:47 | 49.21593 | 7.17218 | 3540 ft | 177 kts | 89° |
| 2026-04-15 09:47 | 49.21587 | 7.19238 | 3897 ft | 202 kts | 105° |
| 2026-04-15 09:48 | 49.20724 | 7.20948 | 4204 ft | 213 kts | 151° |
| 2026-04-15 09:48 | 49.19274 | 7.21254 | 4754 ft | 220 kts | 192° |
| 2026-04-15 09:48 | 49.17856 | 7.20400 | 5522 ft | 220 kts | 204° |
| 2026-04-15 09:48 | 49.16488 | 7.19324 | 6277 ft | 221 kts | 212° |
| 2026-04-15 09:49 | 49.15475 | 7.17550 | 6911 ft | 227 kts | 244° |
| 2026-04-15 09:49 | 49.15121 | 7.15088 | 7193 ft | 252 kts | 265° |
| 2026-04-15 09:49 | 49.15112 | 7.12286 | 7503 ft | 273 kts | 269° |
| 2026-04-15 09:49 | 49.15147 | 7.09333 | 8138 ft | 281 kts | 269° |
| 2026-04-15 09:50 | 49.15167 | 7.06337 | 8945 ft | 282 kts | 269° |
| 2026-04-15 09:50 | 49.15174 | 7.03320 | 9748 ft | 285 kts | 269° |
| 2026-04-15 09:50 | 49.14917 | 7.00359 | 10454 ft | 288 kts | 249° |
| 2026-04-15 09:50 | 49.13851 | 6.97673 | 10773 ft | 308 kts | 230° |
| 2026-04-15 09:51 | 49.12391 | 6.95144 | 11184 ft | 322 kts | 228° |
| 2026-04-15 09:51 | 49.10869 | 6.92580 | 11859 ft | 327 kts | 228° |
| 2026-04-15 09:51 | 49.09338 | 6.89993 | 12713 ft | 328 kts | 229° |
| 2026-04-15 09:51 | 49.07818 | 6.87407 | 13441 ft | 334 kts | 229° |
| 2026-04-15 09:52 | 49.06263 | 6.84740 | 14230 ft | 336 kts | 229° |
| 2026-04-15 09:52 | 49.04700 | 6.82049 | 14923 ft | 341 kts | 229° |
| 2026-04-15 09:52 | 49.03111 | 6.79309 | 15560 ft | 347 kts | 229° |
| 2026-04-15 09:52 | 49.01516 | 6.76569 | 16320 ft | 349 kts | 229° |
| 2026-04-15 09:53 | 48.99847 | 6.73851 | 16984 ft | 356 kts | 220° |
| 2026-04-15 09:53 | 48.97680 | 6.71970 | 17612 ft | 363 kts | 199° |
| 2026-04-15 09:53 | 48.95183 | 6.71329 | 18327 ft | 367 kts | 183° |
| 2026-04-15 09:53 | 48.92609 | 6.71200 | 18951 ft | 371 kts | 181° |
| 2026-04-15 09:54 | 48.90001 | 6.71147 | 19482 ft | 378 kts | 181° |
| 2026-04-15 09:54 | 48.87389 | 6.71101 | 20044 ft | 382 kts | 181° |
| 2026-04-15 09:54 | 48.84705 | 6.71038 | 20643 ft | 385 kts | 181° |
| 2026-04-15 09:54 | 48.82009 | 6.70956 | 21245 ft | 388 kts | 181° |
| 2026-04-15 09:55 | 48.79327 | 6.70861 | 21808 ft | 392 kts | 181° |
| 2026-04-15 09:55 | 48.76577 | 6.70755 | 22379 ft | 396 kts | 182° |
| 2026-04-15 09:55 | 48.73795 | 6.70645 | 22916 ft | 401 kts | 182° |
| 2026-04-15 09:55 | 48.70995 | 6.70534 | 23433 ft | 405 kts | 181° |
| 2026-04-15 09:56 | 48.69117 | 6.70460 | 23777 ft | 408 kts | 182° |
| 2026-04-15 09:56 | 48.65323 | 6.70311 | 24374 ft | 413 kts | 182° |
| 2026-04-15 09:56 | 48.60578 | 6.70127 | 25098 ft | 419 kts | 182° |
| 2026-04-15 09:57 | 48.57650 | 6.70014 | 25526 ft | 422 kts | 182° |
| 2026-04-15 09:57 | 48.54697 | 6.69901 | 25938 ft | 426 kts | 182° |
| 2026-04-15 09:57 | 48.51713 | 6.69787 | 26351 ft | 429 kts | 182° |
| 2026-04-15 09:57 | 48.48708 | 6.69672 | 26751 ft | 433 kts | 182° |
| 2026-04-15 09:58 | 48.45716 | 6.69558 | 27143 ft | 437 kts | 182° |
| 2026-04-15 09:58 | 48.42656 | 6.69441 | 27536 ft | 440 kts | 182° |
| 2026-04-15 09:58 | 48.39579 | 6.69323 | 27916 ft | 444 kts | 182° |
| 2026-04-15 09:58 | 48.36473 | 6.69204 | 28276 ft | 447 kts | 182° |
| 2026-04-15 09:59 | 48.33356 | 6.69084 | 28645 ft | 450 kts | 182° |
| 2026-04-15 09:59 | 48.30200 | 6.68963 | 29008 ft | 454 kts | 182° |
| 2026-04-15 09:59 | 48.27024 | 6.68840 | 29363 ft | 457 kts | 182° |
| 2026-04-15 09:59 | 48.23835 | 6.68718 | 29702 ft | 460 kts | 182° |
| 2026-04-15 10:00 | 48.20656 | 6.68596 | 30042 ft | 463 kts | 182° |
| 2026-04-15 10:00 | 48.17413 | 6.68473 | 30347 ft | 466 kts | 182° |
| 2026-04-15 10:00 | 48.14184 | 6.68349 | 30628 ft | 469 kts | 183° |
| 2026-04-15 10:00 | 48.10905 | 6.68225 | 30917 ft | 471 kts | 182° |
| 2026-04-15 10:01 | 48.07619 | 6.68100 | 31202 ft | 473 kts | 182° |
| 2026-04-15 10:01 | 48.04314 | 6.67974 | 31471 ft | 476 kts | 183° |
| 2026-04-15 10:01 | 48.01027 | 6.67850 | 31727 ft | 478 kts | 182° |
| 2026-04-15 10:01 | 47.97679 | 6.67723 | 32026 ft | 479 kts | 183° |
| 2026-04-15 10:02 | 47.94347 | 6.67597 | 32394 ft | 479 kts | 182° |
| 2026-04-15 10:02 | 47.90994 | 6.67470 | 32759 ft | 478 kts | 183° |
| 2026-04-15 10:02 | 47.87666 | 6.67345 | 33089 ft | 479 kts | 183° |
| 2026-04-15 10:02 | 47.84361 | 6.67221 | 33380 ft | 480 kts | 182° |
| 2026-04-15 10:03 | 47.81015 | 6.67095 | 33708 ft | 479 kts | 182° |
| 2026-04-15 10:03 | 47.77669 | 6.66969 | 34041 ft | 479 kts | 183° |
| 2026-04-15 10:03 | 47.74333 | 6.66843 | 34331 ft | 480 kts | 182° |
| 2026-04-15 10:03 | 47.70982 | 6.66718 | 34583 ft | 480 kts | 182° |
| 2026-04-15 10:04 | 47.67686 | 6.66594 | 34860 ft | 480 kts | 182° |
| 2026-04-15 10:04 | 47.64340 | 6.66469 | 35148 ft | 479 kts | 182° |
| 2026-04-15 10:04 | 47.61009 | 6.66345 | 35424 ft | 479 kts | 182° |
| 2026-04-15 10:04 | 47.57678 | 6.66221 | 35661 ft | 479 kts | 182° |
| 2026-04-15 10:05 | 47.54334 | 6.66096 | 35901 ft | 480 kts | 182° |
| 2026-04-15 10:05 | 47.50994 | 6.65971 | 36136 ft | 480 kts | 182° |
| 2026-04-15 10:05 | 47.47694 | 6.65848 | 36404 ft | 479 kts | 182° |
| 2026-04-15 10:05 | 47.44356 | 6.65696 | 36663 ft | 479 kts | 186° |
| 2026-04-15 10:06 | 47.41091 | 6.64820 | 36867 ft | 476 kts | 199° |
| 2026-04-15 10:06 | 47.38033 | 6.62994 | 37138 ft | 471 kts | 211° |
| 2026-04-15 10:06 | 47.35293 | 6.60378 | 37218 ft | 469 kts | 223° |
| 2026-04-15 10:07 | 47.30392 | 6.54101 | 37218 ft | 468 kts | 225° |
| 2026-04-15 10:07 | 47.25506 | 6.47813 | 37202 ft | 464 kts | 224° |
| 2026-04-15 10:08 | 47.20608 | 6.41661 | 37205 ft | 461 kts | 224° |
| 2026-04-15 10:08 | 47.15746 | 6.35608 | 37205 ft | 459 kts | 224° |
| 2026-04-15 10:09 | 47.10864 | 6.29539 | 37215 ft | 459 kts | 224° |
| 2026-04-15 10:09 | 47.05421 | 6.24601 | 37210 ft | 466 kts | 202° |
| 2026-04-15 10:09 | 47.02293 | 6.23305 | 37226 ft | 468 kts | 191° |
| 2026-04-15 10:10 | 46.99090 | 6.22756 | 37214 ft | 469 kts | 185° |
| 2026-04-15 10:10 | 46.92551 | 6.22000 | 37207 ft | 472 kts | 185° |
| 2026-04-15 10:11 | 46.85987 | 6.21200 | 37210 ft | 474 kts | 186° |
| 2026-04-15 10:11 | 46.79434 | 6.20344 | 37208 ft | 476 kts | 186° |
| 2026-04-15 10:12 | 46.72807 | 6.19460 | 37204 ft | 477 kts | 186° |
| 2026-04-15 10:12 | 46.66206 | 6.18582 | 37201 ft | 479 kts | 186° |
| 2026-04-15 10:13 | 46.59552 | 6.17702 | 37200 ft | 480 kts | 186° |
| 2026-04-15 10:13 | 46.52931 | 6.16830 | 37204 ft | 480 kts | 186° |
| 2026-04-15 10:14 | 46.46276 | 6.15955 | 37206 ft | 479 kts | 186° |
| 2026-04-15 10:14 | 46.39640 | 6.15085 | 37202 ft | 478 kts | 185° |
| 2026-04-15 10:15 | 46.33017 | 6.14218 | 37215 ft | 477 kts | 185° |
| 2026-04-15 10:15 | 46.26406 | 6.13355 | 37214 ft | 476 kts | 185° |
| 2026-04-15 10:16 | 46.19836 | 6.12135 | 37410 ft | 482 kts | 189° |
| 2026-04-15 10:16 | 46.16526 | 6.11362 | 37631 ft | 481 kts | 190° |
| 2026-04-15 10:16 | 46.13225 | 6.10576 | 37911 ft | 480 kts | 190° |
| 2026-04-15 10:16 | 46.09927 | 6.09804 | 38171 ft | 479 kts | 189° |
| 2026-04-15 10:17 | 46.06621 | 6.09049 | 38386 ft | 479 kts | 189° |
| 2026-04-15 10:17 | 46.03323 | 6.08311 | 38575 ft | 479 kts | 189° |
| 2026-04-15 10:17 | 46.00019 | 6.07581 | 38779 ft | 479 kts | 189° |
| 2026-04-15 10:17 | 45.96728 | 6.06857 | 38965 ft | 479 kts | 189° |
| 2026-04-15 10:18 | 45.93464 | 6.06138 | 39104 ft | 477 kts | 189° |
| 2026-04-15 10:18 | 45.86900 | 6.04692 | 39210 ft | 478 kts | 189° |
| 2026-04-15 10:19 | 45.80291 | 6.03235 | 39218 ft | 481 kts | 189° |
| 2026-04-15 10:19 | 45.73683 | 6.01775 | 39220 ft | 483 kts | 189° |
| 2026-04-15 10:20 | 45.67022 | 6.00306 | 39221 ft | 485 kts | 189° |
| 2026-04-15 10:20 | 45.60383 | 5.98848 | 39205 ft | 485 kts | 189° |
| 2026-04-15 10:21 | 45.53748 | 5.97393 | 39207 ft | 479 kts | 189° |
| 2026-04-15 10:21 | 45.47180 | 5.95935 | 39200 ft | 475 kts | 191° |
| 2026-04-15 10:22 | 45.40721 | 5.94020 | 39192 ft | 472 kts | 193° |
| 2026-04-15 10:22 | 45.34346 | 5.91953 | 39180 ft | 471 kts | 193° |
| 2026-04-15 10:23 | 45.27933 | 5.89903 | 39184 ft | 475 kts | 193° |
| 2026-04-15 10:23 | 45.21414 | 5.87863 | 39177 ft | 482 kts | 193° |
| 2026-04-15 10:24 | 45.14880 | 5.85839 | 39168 ft | 486 kts | 193° |
| 2026-04-15 10:24 | 45.08270 | 5.83797 | 39136 ft | 482 kts | 192° |
| 2026-04-15 10:25 | 45.01759 | 5.81789 | 39141 ft | 475 kts | 193° |
| 2026-04-15 10:25 | 44.95340 | 5.79812 | 39136 ft | 473 kts | 193° |
| 2026-04-15 10:26 | 44.88903 | 5.77835 | 39136 ft | 472 kts | 193° |
| 2026-04-15 10:26 | 44.82475 | 5.75864 | 39128 ft | 472 kts | 193° |
| 2026-04-15 10:27 | 44.76043 | 5.73896 | 39128 ft | 473 kts | 192° |
| 2026-04-15 10:27 | 44.69619 | 5.71936 | 39121 ft | 475 kts | 193° |
| 2026-04-15 10:28 | 44.63137 | 5.69963 | 39120 ft | 477 kts | 193° |
| 2026-04-15 10:28 | 44.56617 | 5.67982 | 39111 ft | 480 kts | 193° |
| 2026-04-15 10:29 | 44.50118 | 5.66012 | 39110 ft | 482 kts | 192° |
| 2026-04-15 10:29 | 44.43540 | 5.64022 | 39104 ft | 484 kts | 192° |
| 2026-04-15 10:30 | 44.36974 | 5.61886 | 39087 ft | 484 kts | 200° |
| 2026-04-15 10:30 | 44.30677 | 5.58499 | 39092 ft | 483 kts | 203° |
| 2026-04-15 10:31 | 44.24476 | 5.54983 | 39100 ft | 483 kts | 203° |
| 2026-04-15 10:31 | 44.18256 | 5.51538 | 39090 ft | 482 kts | 202° |
| 2026-04-15 10:32 | 44.11999 | 5.48130 | 39092 ft | 481 kts | 202° |
| 2026-04-15 10:32 | 44.05754 | 5.44739 | 39087 ft | 480 kts | 202° |
| 2026-04-15 10:33 | 43.99577 | 5.41387 | 39095 ft | 479 kts | 202° |
| 2026-04-15 10:33 | 43.93378 | 5.38032 | 39089 ft | 477 kts | 202° |
| 2026-04-15 10:34 | 43.87192 | 5.34689 | 39105 ft | 476 kts | 202° |
| 2026-04-15 10:34 | 43.81041 | 5.31371 | 39114 ft | 476 kts | 202° |
| 2026-04-15 10:35 | 43.74865 | 5.28046 | 39122 ft | 476 kts | 202° |
| 2026-04-15 10:35 | 43.68680 | 5.24723 | 39131 ft | 477 kts | 202° |
| 2026-04-15 10:36 | 43.62473 | 5.21397 | 39136 ft | 477 kts | 202° |
| 2026-04-15 10:36 | 43.56320 | 5.18106 | 39134 ft | 478 kts | 202° |
| 2026-04-15 10:37 | 43.50088 | 5.14780 | 39136 ft | 479 kts | 202° |
| 2026-04-15 10:37 | 43.43846 | 5.11456 | 39128 ft | 480 kts | 202° |
| 2026-04-15 10:38 | 43.37727 | 5.07897 | 39126 ft | 479 kts | 212° |
| 2026-04-15 10:38 | 43.32206 | 5.02800 | 39127 ft | 477 kts | 218° |
| 2026-04-15 10:39 | 43.26772 | 4.97548 | 39130 ft | 478 kts | 217° |
| 2026-04-15 10:39 | 43.21330 | 4.92389 | 39127 ft | 478 kts | 217° |
| 2026-04-15 10:40 | 43.15821 | 4.87228 | 39136 ft | 478 kts | 217° |
| 2026-04-15 10:40 | 43.10320 | 4.82085 | 39135 ft | 478 kts | 217° |
| 2026-04-15 10:41 | 43.04838 | 4.77029 | 39143 ft | 478 kts | 213° |
| 2026-04-15 10:41 | 42.99044 | 4.72514 | 39148 ft | 479 kts | 211° |
| 2026-04-15 10:42 | 42.93165 | 4.68177 | 39151 ft | 479 kts | 210° |
| 2026-04-15 10:42 | 42.91218 | 4.66735 | 39153 ft | 479 kts | 211° |